sensor_id;sensor_type;location;lat;lon;timestamp;pressure;altitude;pressure_sealevel;temperature;humidity
4133;BME280;2080;51.038;7.008;2023-02-21T00:02:19;76693.28;;;-142.53;100.00
4133;BME280;2080;51.038;7.008;2023-02-21T00:05:04;76704.94;;;-142.53;100.00
4133;BME280;2080;51.038;7.008;2023-02-21T00:07:50;76703.00;;;-142.53;100.00
4133;BME280;2080;51.038;7.008;2023-02-21T00:10:34;76693.28;;;-142.53;100.00
4133;BME280;2080;51.038;7.008;2023-02-21T00:13:18;76704.94;;;-142.53;100.00
4133;BME280;2080;51.038;7.008;2023-02-21T00:16:02;76724.38;;;-142.53;100.00
4133;BME280;2080;51.038;7.008;2023-02-21T00:18:48;76712.72;;;-142.53;100.00
4133;BME280;2080;51.038;7.008;2023-02-21T00:21:32;76714.66;;;-142.53;100.00
4133;BME280;2080;51.038;7.008;2023-02-21T00:24:17;76716.59;;;-142.53;100.00
4133;BME280;2080;51.038;7.008;2023-02-21T00:27:01;76732.13;;;-142.53;100.00
4133;BME280;2080;51.038;7.008;2023-02-21T00:29:49;76722.41;;;-142.53;100.00
4133;BME280;2080;51.038;7.008;2023-02-21T00:32:33;76708.81;;;-142.53;100.00
4133;BME280;2080;51.038;7.008;2023-02-21T00:35:17;76716.59;;;-142.53;100.00
4133;BME280;2080;51.038;7.008;2023-02-21T00:38:02;76710.75;;;-142.53;100.00
4133;BME280;2080;51.038;7.008;2023-02-21T00:40:46;76708.81;;;-142.53;100.00
4133;BME280;2080;51.038;7.008;2023-02-21T00:43:32;76724.38;;;-142.53;100.00
4133;BME280;2080;51.038;7.008;2023-02-21T00:46:19;76716.59;;;-142.53;100.00
4133;BME280;2080;51.038;7.008;2023-02-21T00:49:04;76716.59;;;-142.53;100.00
4133;BME280;2080;51.038;7.008;2023-02-21T00:51:51;76724.38;;;-142.53;100.00
4133;BME280;2080;51.038;7.008;2023-02-21T00:54:35;76718.53;;;-142.53;100.00
4133;BME280;2080;51.038;7.008;2023-02-21T00:57:19;76714.66;;;-142.53;100.00
4133;BME280;2080;51.038;7.008;2023-02-21T01:00:06;76724.38;;;-142.53;100.00
4133;BME280;2080;51.038;7.008;2023-02-21T01:02:50;76695.22;;;-142.53;100.00
4133;BME280;2080;51.038;7.008;2023-02-21T01:05:36;76701.06;;;-142.53;100.00
4133;BME280;2080;51.038;7.008;2023-02-21T01:08:20;76704.94;;;-142.53;100.00
4133;BME280;2080;51.038;7.008;2023-02-21T01:11:04;76695.22;;;-142.53;100.00
4133;BME280;2080;51.038;7.008;2023-02-21T01:13:48;76712.72;;;-142.53;100.00
4133;BME280;2080;51.038;7.008;2023-02-21T01:16:33;76720.47;;;-142.53;100.00
4133;BME280;2080;51.038;7.008;2023-02-21T01:19:19;76728.25;;;-142.53;100.00
4133;BME280;2080;51.038;7.008;2023-02-21T01:22:04;76732.13;;;-142.53;100.00
4133;BME280;2080;51.038;7.008;2023-02-21T01:24:51;76739.91;;;-142.53;100.00
4133;BME280;2080;51.038;7.008;2023-02-21T01:27:37;76736.03;;;-142.53;100.00
4133;BME280;2080;51.038;7.008;2023-02-21T01:30:21;76737.97;;;-142.53;100.00
4133;BME280;2080;51.038;7.008;2023-02-21T01:33:05;76759.34;;;-142.53;100.00
4133;BME280;2080;51.038;7.008;2023-02-21T01:35:49;76751.56;;;-142.53;100.00
4133;BME280;2080;51.038;7.008;2023-02-21T01:38:34;76732.13;;;-142.53;100.00
4133;BME280;2080;51.038;7.008;2023-02-21T01:41:18;76708.81;;;-142.53;100.00
4133;BME280;2080;51.038;7.008;2023-02-21T01:47:14;76706.88;;;-142.53;100.00
4133;BME280;2080;51.038;7.008;2023-02-21T01:50:00;76724.38;;;-142.53;100.00
4133;BME280;2080;51.038;7.008;2023-02-21T01:52:46;76728.25;;;-142.53;100.00
4133;BME280;2080;51.038;7.008;2023-02-21T01:55:31;76706.88;;;-142.53;100.00
4133;BME280;2080;51.038;7.008;2023-02-21T01:58:19;76712.72;;;-142.53;100.00
4133;BME280;2080;51.038;7.008;2023-02-21T02:01:07;76716.59;;;-142.53;100.00
4133;BME280;2080;51.038;7.008;2023-02-21T02:03:52;76704.94;;;-142.53;100.00
4133;BME280;2080;51.038;7.008;2023-02-21T02:06:36;76701.06;;;-142.53;100.00
4133;BME280;2080;51.038;7.008;2023-02-21T02:09:21;76689.41;;;-142.53;100.00
4133;BME280;2080;51.038;7.008;2023-02-21T02:24:59;76704.94;;;-142.53;100.00
4133;BME280;2080;51.038;7.008;2023-02-21T02:27:54;76695.22;;;-142.53;100.00
4133;BME280;2080;51.038;7.008;2023-02-21T02:38:29;76662.19;;;-142.53;100.00
4133;BME280;2080;51.038;7.008;2023-02-21T02:43:32;76699.13;;;-142.53;100.00
4133;BME280;2080;51.038;7.008;2023-02-21T02:49:15;76681.63;;;-142.53;100.00
4133;BME280;2080;51.038;7.008;2023-02-21T02:51:42;76673.84;;;-142.53;100.00
4133;BME280;2080;51.038;7.008;2023-02-21T02:54:11;76673.84;;;-142.53;100.00
4133;BME280;2080;51.038;7.008;2023-02-21T02:56:37;76685.50;;;-142.53;100.00
4133;BME280;2080;51.038;7.008;2023-02-21T02:59:11;76689.41;;;-142.53;100.00
4133;BME280;2080;51.038;7.008;2023-02-21T03:01:51;76708.81;;;-142.53;100.00
4133;BME280;2080;51.038;7.008;2023-02-21T03:04:54;76724.38;;;-142.53;100.00
4133;BME280;2080;51.038;7.008;2023-02-21T03:13:09;76708.81;;;-142.53;100.00
4133;BME280;2080;51.038;7.008;2023-02-21T03:18:15;76689.41;;;-142.53;100.00
4133;BME280;2080;51.038;7.008;2023-02-21T03:20:42;76689.41;;;-142.53;100.00
4133;BME280;2080;51.038;7.008;2023-02-21T03:23:10;76697.16;;;-142.53;100.00
4133;BME280;2080;51.038;7.008;2023-02-21T03:25:40;76697.16;;;-142.53;100.00
4133;BME280;2080;51.038;7.008;2023-02-21T03:28:09;76693.28;;;-142.53;100.00
4133;BME280;2080;51.038;7.008;2023-02-21T03:30:36;76689.41;;;-142.53;100.00
4133;BME280;2080;51.038;7.008;2023-02-21T03:33:03;76689.41;;;-142.53;100.00
4133;BME280;2080;51.038;7.008;2023-02-21T03:35:30;76693.28;;;-142.53;100.00
4133;BME280;2080;51.038;7.008;2023-02-21T03:38:00;76701.06;;;-142.53;100.00
4133;BME280;2080;51.038;7.008;2023-02-21T03:40:32;76689.41;;;-142.53;100.00
4133;BME280;2080;51.038;7.008;2023-02-21T03:43:00;76673.84;;;-142.53;100.00
4133;BME280;2080;51.038;7.008;2023-02-21T03:45:28;76701.06;;;-142.53;100.00
4133;BME280;2080;51.038;7.008;2023-02-21T03:47:53;76701.06;;;-142.53;100.00
4133;BME280;2080;51.038;7.008;2023-02-21T03:50:21;76664.16;;;-142.53;100.00
4133;BME280;2080;51.038;7.008;2023-02-21T03:52:48;76656.38;;;-142.53;100.00
4133;BME280;2080;51.038;7.008;2023-02-21T03:55:14;76646.66;;;-142.53;100.00
4133;BME280;2080;51.038;7.008;2023-02-21T03:57:39;76654.44;;;-142.53;100.00
4133;BME280;2080;51.038;7.008;2023-02-21T04:00:05;76669.97;;;-142.53;100.00
4133;BME280;2080;51.038;7.008;2023-02-21T04:02:31;76654.44;;;-142.53;100.00
4133;BME280;2080;51.038;7.008;2023-02-21T04:04:59;76654.44;;;-142.53;100.00
4133;BME280;2080;51.038;7.008;2023-02-21T04:07:26;76654.44;;;-142.53;100.00
4133;BME280;2080;51.038;7.008;2023-02-21T04:09:54;76658.31;;;-142.53;100.00
4133;BME280;2080;51.038;7.008;2023-02-21T04:12:21;76646.66;;;-142.53;100.00
4133;BME280;2080;51.038;7.008;2023-02-21T04:14:47;76644.72;;;-142.53;100.00
4133;BME280;2080;51.038;7.008;2023-02-21T04:17:12;76650.56;;;-142.53;100.00
4133;BME280;2080;51.038;7.008;2023-02-21T04:19:40;76644.72;;;-142.53;100.00
4133;BME280;2080;51.038;7.008;2023-02-21T04:22:05;76658.31;;;-142.53;100.00
4133;BME280;2080;51.038;7.008;2023-02-21T04:24:36;76658.31;;;-142.53;100.00
4133;BME280;2080;51.038;7.008;2023-02-21T04:27:04;76644.72;;;-142.53;100.00
4133;BME280;2080;51.038;7.008;2023-02-21T04:29:32;76646.66;;;-142.53;100.00
4133;BME280;2080;51.038;7.008;2023-02-21T04:31:57;76668.03;;;-142.53;100.00
4133;BME280;2080;51.038;7.008;2023-02-21T04:34:22;76675.81;;;-142.53;100.00
4133;BME280;2080;51.038;7.008;2023-02-21T04:36:50;76664.16;;;-142.53;100.00
4133;BME280;2080;51.038;7.008;2023-02-21T04:39:18;76654.44;;;-142.53;100.00
4133;BME280;2080;51.038;7.008;2023-02-21T04:41:43;76642.78;;;-142.53;100.00
4133;BME280;2080;51.038;7.008;2023-02-21T04:44:12;76646.66;;;-142.53;100.00
4133;BME280;2080;51.038;7.008;2023-02-21T04:46:37;76638.91;;;-142.53;100.00
4133;BME280;2080;51.038;7.008;2023-02-21T04:49:03;76646.66;;;-142.53;100.00
4133;BME280;2080;51.038;7.008;2023-02-21T04:51:28;76631.13;;;-142.53;100.00
4133;BME280;2080;51.038;7.008;2023-02-21T04:53:54;76627.25;;;-142.53;100.00
4133;BME280;2080;51.038;7.008;2023-02-21T04:56:22;76623.34;;;-142.53;100.00
4133;BME280;2080;51.038;7.008;2023-02-21T04:58:48;76615.59;;;-142.53;100.00
4133;BME280;2080;51.038;7.008;2023-02-21T05:01:19;76631.13;;;-142.53;100.00
4133;BME280;2080;51.038;7.008;2023-02-21T05:03:44;76627.25;;;-142.53;100.00
4133;BME280;2080;51.038;7.008;2023-02-21T05:06:17;76623.34;;;-142.53;100.00
4133;BME280;2080;51.038;7.008;2023-02-21T05:08:45;76627.25;;;-142.53;100.00
4133;BME280;2080;51.038;7.008;2023-02-21T05:11:11;76625.28;;;-142.53;100.00
4133;BME280;2080;51.038;7.008;2023-02-21T05:13:38;76654.44;;;-142.53;100.00
4133;BME280;2080;51.038;7.008;2023-02-21T05:16:04;76662.19;;;-142.53;100.00
4133;BME280;2080;51.038;7.008;2023-02-21T05:18:30;76648.59;;;-142.53;100.00
4133;BME280;2080;51.038;7.008;2023-02-21T05:20:58;76646.66;;;-142.53;100.00
4133;BME280;2080;51.038;7.008;2023-02-21T05:23:24;76650.56;;;-142.53;100.00
4133;BME280;2080;51.038;7.008;2023-02-21T05:26:11;76642.78;;;-142.53;100.00
4133;BME280;2080;51.038;7.008;2023-02-21T05:28:38;76646.66;;;-142.53;100.00
4133;BME280;2080;51.038;7.008;2023-02-21T05:31:04;76646.66;;;-142.53;100.00
4133;BME280;2080;51.038;7.008;2023-02-21T05:33:30;76638.91;;;-142.53;100.00
4133;BME280;2080;51.038;7.008;2023-02-21T05:35:55;76650.56;;;-142.53;100.00
4133;BME280;2080;51.038;7.008;2023-02-21T05:38:22;76646.66;;;-142.53;100.00
4133;BME280;2080;51.038;7.008;2023-02-21T05:40:50;76646.66;;;-142.53;100.00
4133;BME280;2080;51.038;7.008;2023-02-21T05:43:18;76642.78;;;-142.53;100.00
4133;BME280;2080;51.038;7.008;2023-02-21T05:45:48;76646.66;;;-142.53;100.00
4133;BME280;2080;51.038;7.008;2023-02-21T05:48:14;76638.91;;;-142.53;100.00
4133;BME280;2080;51.038;7.008;2023-02-21T05:50:41;76635.00;;;-142.53;100.00
4133;BME280;2080;51.038;7.008;2023-02-21T05:53:11;76642.78;;;-142.53;100.00
4133;BME280;2080;51.038;7.008;2023-02-21T05:55:39;76658.31;;;-142.53;100.00
4133;BME280;2080;51.038;7.008;2023-02-21T05:58:06;76650.56;;;-142.53;100.00
4133;BME280;2080;51.038;7.008;2023-02-21T06:00:32;76654.44;;;-142.53;100.00
4133;BME280;2080;51.038;7.008;2023-02-21T06:02:59;76658.31;;;-142.53;100.00
4133;BME280;2080;51.038;7.008;2023-02-21T06:05:25;76654.44;;;-142.53;100.00
4133;BME280;2080;51.038;7.008;2023-02-21T06:07:50;76669.97;;;-142.53;100.00
4133;BME280;2080;51.038;7.008;2023-02-21T06:10:18;76666.09;;;-142.53;100.00
4133;BME280;2080;51.038;7.008;2023-02-21T06:12:44;76654.44;;;-142.53;100.00
4133;BME280;2080;51.038;7.008;2023-02-21T06:15:09;76650.56;;;-142.53;100.00
4133;BME280;2080;51.038;7.008;2023-02-21T06:17:37;76658.31;;;-142.53;100.00
4133;BME280;2080;51.038;7.008;2023-02-21T06:20:04;76654.44;;;-142.53;100.00
4133;BME280;2080;51.038;7.008;2023-02-21T06:22:30;76658.31;;;-142.53;100.00
4133;BME280;2080;51.038;7.008;2023-02-21T06:24:57;76654.44;;;-142.53;100.00
4133;BME280;2080;51.038;7.008;2023-02-21T06:27:25;76654.44;;;-142.53;100.00
4133;BME280;2080;51.038;7.008;2023-02-21T06:29:50;76656.38;;;-142.53;100.00
4133;BME280;2080;51.038;7.008;2023-02-21T06:32:15;76654.44;;;-142.53;100.00
4133;BME280;2080;51.038;7.008;2023-02-21T06:34:43;76654.44;;;-142.53;100.00
4133;BME280;2080;51.038;7.008;2023-02-21T06:37:08;76650.56;;;-142.53;100.00
4133;BME280;2080;51.038;7.008;2023-02-21T06:39:36;76673.84;;;-142.53;100.00
4133;BME280;2080;51.038;7.008;2023-02-21T06:42:02;76666.09;;;-142.53;100.00
4133;BME280;2080;51.038;7.008;2023-02-21T06:44:29;76668.03;;;-142.53;100.00
4133;BME280;2080;51.038;7.008;2023-02-21T06:46:57;76673.84;;;-142.53;100.00
4133;BME280;2080;51.038;7.008;2023-02-21T06:49:22;76677.75;;;-142.53;100.00
4133;BME280;2080;51.038;7.008;2023-02-21T06:51:48;76691.34;;;-142.53;100.00
4133;BME280;2080;51.038;7.008;2023-02-21T06:54:13;76701.06;;;-142.53;100.00
4133;BME280;2080;51.038;7.008;2023-02-21T06:56:41;76704.94;;;-142.53;100.00
4133;BME280;2080;51.038;7.008;2023-02-21T06:59:06;76673.84;;;-142.53;100.00
4133;BME280;2080;51.038;7.008;2023-02-21T07:01:32;76685.50;;;-142.53;100.00
4133;BME280;2080;51.038;7.008;2023-02-21T07:03:59;76687.47;;;-142.53;100.00
4133;BME280;2080;51.038;7.008;2023-02-21T07:06:24;76685.50;;;-142.53;100.00
4133;BME280;2080;51.038;7.008;2023-02-21T07:08:50;76687.47;;;-142.53;100.00
4133;BME280;2080;51.038;7.008;2023-02-21T07:11:17;76689.41;;;-142.53;100.00
4133;BME280;2080;51.038;7.008;2023-02-21T07:13:49;76697.16;;;-142.53;100.00
4133;BME280;2080;51.038;7.008;2023-02-21T07:16:17;76693.28;;;-142.53;100.00
4133;BME280;2080;51.038;7.008;2023-02-21T07:18:46;76654.44;;;-142.53;100.00
4133;BME280;2080;51.038;7.008;2023-02-21T07:21:12;76677.75;;;-142.53;100.00
4133;BME280;2080;51.038;7.008;2023-02-21T07:23:42;76689.41;;;-142.53;100.00
4133;BME280;2080;51.038;7.008;2023-02-21T07:26:10;76699.13;;;-142.53;100.00
4133;BME280;2080;51.038;7.008;2023-02-21T07:28:36;76681.63;;;-142.53;100.00
4133;BME280;2080;51.038;7.008;2023-02-21T07:31:01;76679.69;;;-142.53;100.00
4133;BME280;2080;51.038;7.008;2023-02-21T07:33:27;76677.75;;;-142.53;100.00
4133;BME280;2080;51.038;7.008;2023-02-21T07:35:55;76687.47;;;-142.53;100.00
4133;BME280;2080;51.038;7.008;2023-02-21T07:38:26;76673.84;;;-142.53;100.00
4133;BME280;2080;51.038;7.008;2023-02-21T07:40:59;76673.84;;;-142.53;100.00
4133;BME280;2080;51.038;7.008;2023-02-21T07:43:27;76669.97;;;-142.53;100.00
4133;BME280;2080;51.038;7.008;2023-02-21T07:45:53;76685.50;;;-142.53;100.00
4133;BME280;2080;51.038;7.008;2023-02-21T07:48:19;76664.16;;;-142.53;100.00
4133;BME280;2080;51.038;7.008;2023-02-21T07:50:45;76685.50;;;-142.53;100.00
4133;BME280;2080;51.038;7.008;2023-02-21T07:53:12;76685.50;;;-142.53;100.00
4133;BME280;2080;51.038;7.008;2023-02-21T07:55:37;76683.56;;;-142.53;100.00
4133;BME280;2080;51.038;7.008;2023-02-21T07:58:05;76669.97;;;-142.53;100.00
4133;BME280;2080;51.038;7.008;2023-02-21T08:00:33;76669.97;;;-142.53;100.00
4133;BME280;2080;51.038;7.008;2023-02-21T08:03:01;76677.75;;;-142.53;100.00
4133;BME280;2080;51.038;7.008;2023-02-21T08:05:29;76701.06;;;-142.53;100.00
4133;BME280;2080;51.038;7.008;2023-02-21T08:07:54;76689.41;;;-142.53;100.00
4133;BME280;2080;51.038;7.008;2023-02-21T08:10:24;76677.75;;;-142.53;100.00
4133;BME280;2080;51.038;7.008;2023-02-21T08:12:52;76673.84;;;-142.53;100.00
4133;BME280;2080;51.038;7.008;2023-02-21T08:15:18;76685.50;;;-142.53;100.00
4133;BME280;2080;51.038;7.008;2023-02-21T08:17:43;76693.28;;;-142.53;100.00
4133;BME280;2080;51.038;7.008;2023-02-21T08:20:11;76687.47;;;-142.53;100.00
4133;BME280;2080;51.038;7.008;2023-02-21T08:22:37;76675.81;;;-142.53;100.00
4133;BME280;2080;51.038;7.008;2023-02-21T08:25:02;76703.00;;;-142.53;100.00
4133;BME280;2080;51.038;7.008;2023-02-21T08:27:35;76685.50;;;-142.53;100.00
4133;BME280;2080;51.038;7.008;2023-02-21T08:30:04;76660.25;;;-142.53;100.00
4133;BME280;2080;51.038;7.008;2023-02-21T08:32:30;76697.16;;;-142.53;100.00
4133;BME280;2080;51.038;7.008;2023-02-21T08:34:55;76697.16;;;-142.53;100.00
4133;BME280;2080;51.038;7.008;2023-02-21T08:37:23;76708.81;;;-142.53;100.00
4133;BME280;2080;51.038;7.008;2023-02-21T08:39:57;76701.06;;;-142.53;100.00
4133;BME280;2080;51.038;7.008;2023-02-21T08:42:23;76697.16;;;-142.53;100.00
4133;BME280;2080;51.038;7.008;2023-02-21T08:44:51;76716.59;;;-142.53;100.00
4133;BME280;2080;51.038;7.008;2023-02-21T08:47:18;76704.94;;;-142.53;100.00
4133;BME280;2080;51.038;7.008;2023-02-21T08:49:45;76685.50;;;-142.53;100.00
4133;BME280;2080;51.038;7.008;2023-02-21T08:52:12;76673.84;;;-142.53;100.00
4133;BME280;2080;51.038;7.008;2023-02-21T08:54:37;76662.19;;;-142.53;100.00
4133;BME280;2080;51.038;7.008;2023-02-21T08:57:02;76650.56;;;-142.53;100.00
4133;BME280;2080;51.038;7.008;2023-02-21T08:59:28;76660.25;;;-142.53;100.00
4133;BME280;2080;51.038;7.008;2023-02-21T09:02:00;76648.59;;;-142.53;100.00
4133;BME280;2080;51.038;7.008;2023-02-21T09:04:26;76654.44;;;-142.53;100.00
4133;BME280;2080;51.038;7.008;2023-02-21T09:06:55;76664.16;;;-142.53;100.00
4133;BME280;2080;51.038;7.008;2023-02-21T09:09:21;76662.19;;;-142.53;100.00
4133;BME280;2080;51.038;7.008;2023-02-21T09:11:48;76666.09;;;-142.53;100.00
4133;BME280;2080;51.038;7.008;2023-02-21T09:14:17;76658.31;;;-142.53;100.00
4133;BME280;2080;51.038;7.008;2023-02-21T09:16:42;76685.50;;;-142.53;100.00
4133;BME280;2080;51.038;7.008;2023-02-21T09:19:08;76662.19;;;-142.53;100.00
4133;BME280;2080;51.038;7.008;2023-02-21T09:21:34;76650.56;;;-142.53;100.00
4133;BME280;2080;51.038;7.008;2023-02-21T09:24:00;76642.78;;;-142.53;100.00
4133;BME280;2080;51.038;7.008;2023-02-21T09:26:29;76611.69;;;-142.53;100.00
4133;BME280;2080;51.038;7.008;2023-02-21T09:28:58;76603.94;;;-142.53;100.00
4133;BME280;2080;51.038;7.008;2023-02-21T09:31:30;76638.91;;;-142.53;100.00
4133;BME280;2080;51.038;7.008;2023-02-21T09:33:58;76623.34;;;-142.53;100.00
4133;BME280;2080;51.038;7.008;2023-02-21T09:36:23;76607.81;;;-142.53;100.00
4133;BME280;2080;51.038;7.008;2023-02-21T09:38:53;76598.09;;;-142.53;100.00
4133;BME280;2080;51.038;7.008;2023-02-21T09:41:21;76592.28;;;-142.53;100.00
4133;BME280;2080;51.038;7.008;2023-02-21T09:43:52;76584.50;;;-142.53;100.00
4133;BME280;2080;51.038;7.008;2023-02-21T09:48:53;76574.78;;;-142.53;100.00
4133;BME280;2080;51.038;7.008;2023-02-21T09:51:21;76576.72;;;-142.53;100.00
4133;BME280;2080;51.038;7.008;2023-02-21T09:53:52;76570.91;;;-142.53;100.00
4133;BME280;2080;51.038;7.008;2023-02-21T09:56:30;76551.47;;;-142.53;100.00
4133;BME280;2080;51.038;7.008;2023-02-21T09:58:59;76549.53;;;-142.53;100.00
4133;BME280;2080;51.038;7.008;2023-02-21T10:04:39;76543.72;;;-142.53;100.00
4133;BME280;2080;51.038;7.008;2023-02-21T10:10:29;76526.22;;;-142.53;100.00
4133;BME280;2080;51.038;7.008;2023-02-21T10:13:05;76500.97;;;-142.53;100.00
4133;BME280;2080;51.038;7.008;2023-02-21T10:15:46;76514.56;;;-142.53;100.00
4133;BME280;2080;51.038;7.008;2023-02-21T10:20:58;76516.53;;;-142.53;100.00
4133;BME280;2080;51.038;7.008;2023-02-21T10:26:08;76508.75;;;-142.53;100.00
4133;BME280;2080;51.038;7.008;2023-02-21T10:28:34;76479.63;;;-142.53;100.00
4133;BME280;2080;51.038;7.008;2023-02-21T10:31:06;76460.19;;;-142.53;100.00
4133;BME280;2080;51.038;7.008;2023-02-21T10:33:35;76479.63;;;-142.53;100.00
4133;BME280;2080;51.038;7.008;2023-02-21T10:36:09;76467.97;;;-142.53;100.00
4133;BME280;2080;51.038;7.008;2023-02-21T10:38:35;76456.31;;;-142.53;100.00
4133;BME280;2080;51.038;7.008;2023-02-21T10:41:04;76458.25;;;-142.53;100.00
4133;BME280;2080;51.038;7.008;2023-02-21T10:43:41;76464.06;;;-142.53;100.00
4133;BME280;2080;51.038;7.008;2023-02-21T10:46:14;76464.06;;;-142.53;100.00
4133;BME280;2080;51.038;7.008;2023-02-21T10:48:46;76467.97;;;-142.53;100.00
4133;BME280;2080;51.038;7.008;2023-02-21T10:51:27;76487.38;;;-142.53;100.00
4133;BME280;2080;51.038;7.008;2023-02-21T10:56:43;76483.50;;;-142.53;100.00
4133;BME280;2080;51.038;7.008;2023-02-21T10:59:29;76491.28;;;-142.53;100.00
4133;BME280;2080;51.038;7.008;2023-02-21T11:01:55;76495.16;;;-142.53;100.00
4133;BME280;2080;51.038;7.008;2023-02-21T11:04:29;76514.56;;;-142.53;100.00
4133;BME280;2080;51.038;7.008;2023-02-21T11:07:09;76502.91;;;-142.53;100.00
4133;BME280;2080;51.038;7.008;2023-02-21T11:14:41;76475.72;;;-142.53;100.00
4133;BME280;2080;51.038;7.008;2023-02-21T11:19:55;76452.41;;;-142.53;100.00
4133;BME280;2080;51.038;7.008;2023-02-21T11:24:55;76419.41;;;-142.53;100.00
4133;BME280;2080;51.038;7.008;2023-02-21T11:27:26;76417.47;;;-142.53;100.00
4133;BME280;2080;51.038;7.008;2023-02-21T11:29:52;76401.91;;;-142.53;100.00
4133;BME280;2080;51.038;7.008;2023-02-21T11:32:26;76405.81;;;-142.53;100.00
4133;BME280;2080;51.038;7.008;2023-02-21T11:35:05;76390.28;;;-142.53;100.00
4133;BME280;2080;51.038;7.008;2023-02-21T11:37:31;76366.97;;;-142.53;100.00
4133;BME280;2080;51.038;7.008;2023-02-21T11:39:57;76378.63;;;-142.53;100.00
4133;BME280;2080;51.038;7.008;2023-02-21T11:42:37;76374.72;;;-142.53;100.00
4133;BME280;2080;51.038;7.008;2023-02-21T11:47:42;76359.19;;;-142.53;100.00
4133;BME280;2080;51.038;7.008;2023-02-21T11:50:28;76366.97;;;-142.53;100.00
4133;BME280;2080;51.038;7.008;2023-02-21T11:53:28;76355.31;;;-142.53;100.00
4133;BME280;2080;51.038;7.008;2023-02-21T12:06:47;76304.81;;;-142.53;100.00
4133;BME280;2080;51.038;7.008;2023-02-21T12:15:09;76297.03;;;-142.53;100.00
4133;BME280;2080;51.038;7.008;2023-02-21T12:17:59;76277.63;;;-142.53;100.00
4133;BME280;2080;51.038;7.008;2023-02-21T12:50:52;76258.19;;;-142.53;100.00
4133;BME280;2080;51.038;7.008;2023-02-21T12:53:24;76269.84;;;-142.53;100.00
4133;BME280;2080;51.038;7.008;2023-02-21T12:56:02;76252.38;;;-142.53;100.00
4133;BME280;2080;51.038;7.008;2023-02-21T13:01:36;76250.41;;;-142.53;100.00
4133;BME280;2080;51.038;7.008;2023-02-21T13:04:16;76238.78;;;-142.53;100.00
4133;BME280;2080;51.038;7.008;2023-02-21T13:06:51;76217.41;;;-142.53;100.00
4133;BME280;2080;51.038;7.008;2023-02-21T13:12:13;76201.88;;;-142.53;100.00
4133;BME280;2080;51.038;7.008;2023-02-21T13:17:24;76161.09;;;-142.53;100.00
4133;BME280;2080;51.038;7.008;2023-02-21T13:20:06;76133.88;;;-142.53;100.00
4133;BME280;2080;51.038;7.008;2023-02-21T13:26:20;76102.81;;;-142.53;97.63
4133;BME280;2080;51.038;7.008;2023-02-21T13:28:57;76130.00;;;-142.53;96.40
4133;BME280;2080;51.038;7.008;2023-02-21T13:31:32;76114.47;;;-142.53;96.68
4133;BME280;2080;51.038;7.008;2023-02-21T13:34:06;76114.47;;;-142.53;96.74
4133;BME280;2080;51.038;7.008;2023-02-21T13:39:31;76176.63;;;-142.53;98.35
4133;BME280;2080;51.038;7.008;2023-02-21T13:42:15;76106.69;;;-142.53;95.09
4133;BME280;2080;51.038;7.008;2023-02-21T13:44:53;76151.38;;;-142.53;96.71
4133;BME280;2080;51.038;7.008;2023-02-21T13:47:21;76145.53;;;-142.53;97.95
4133;BME280;2080;51.038;7.008;2023-02-21T13:49:54;76180.50;;;-142.53;100.00
4133;BME280;2080;51.038;7.008;2023-02-21T14:13:34;76110.59;;;-142.53;97.52
4133;BME280;2080;51.038;7.008;2023-02-21T14:24:10;76238.78;;;-142.53;100.00
4133;BME280;2080;51.038;7.008;2023-02-21T14:29:11;76118.34;;;-142.53;100.00
4133;BME280;2080;51.038;7.008;2023-02-21T14:39:42;76071.75;;;-142.53;98.05
4133;BME280;2080;51.038;7.008;2023-02-21T14:42:38;76063.97;;;-142.53;95.34
4133;BME280;2080;51.038;7.008;2023-02-21T14:53:00;76149.44;;;-142.53;100.00
4133;BME280;2080;51.038;7.008;2023-02-21T14:58:21;76131.94;;;-142.53;100.00
4133;BME280;2080;51.038;7.008;2023-02-21T15:03:43;76118.34;;;-142.53;98.14
4133;BME280;2080;51.038;7.008;2023-02-21T15:06:18;76157.19;;;-142.53;99.39
4133;BME280;2080;51.038;7.008;2023-02-21T15:08:49;76137.78;;;-142.53;100.00
4133;BME280;2080;51.038;7.008;2023-02-21T15:11:24;76091.16;;;-142.53;96.83
4133;BME280;2080;51.038;7.008;2023-02-21T15:14:20;76153.31;;;-142.53;99.36
4133;BME280;2080;51.038;7.008;2023-02-21T15:17:10;76153.31;;;-142.53;98.81
4133;BME280;2080;51.038;7.008;2023-02-21T15:19:36;76108.63;;;-142.53;97.79
4133;BME280;2080;51.038;7.008;2023-02-21T15:22:07;76128.06;;;-142.53;99.36
4133;BME280;2080;51.038;7.008;2023-02-21T15:24:38;76164.97;;;-142.53;100.00
4133;BME280;2080;51.038;7.008;2023-02-21T15:27:13;76170.78;;;-142.53;100.00
4133;BME280;2080;51.038;7.008;2023-02-21T15:29:39;76153.31;;;-142.53;100.00
4133;BME280;2080;51.038;7.008;2023-02-21T15:32:05;76126.13;;;-142.53;97.98
4133;BME280;2080;51.038;7.008;2023-02-21T15:34:40;76135.84;;;-142.53;97.78
4133;BME280;2080;51.038;7.008;2023-02-21T15:37:21;76157.19;;;-142.53;99.44
4133;BME280;2080;51.038;7.008;2023-02-21T15:39:55;76153.31;;;-142.53;99.51
4133;BME280;2080;51.038;7.008;2023-02-21T15:42:26;76141.66;;;-142.53;98.59
4133;BME280;2080;51.038;7.008;2023-02-21T15:45:01;76172.72;;;-142.53;99.12
4133;BME280;2080;51.038;7.008;2023-02-21T15:47:31;76188.28;;;-142.53;100.00
4133;BME280;2080;51.038;7.008;2023-02-21T15:57:59;76164.97;;;-142.53;100.00
4133;BME280;2080;51.038;7.008;2023-02-21T16:00:33;76153.31;;;-142.53;100.00
4133;BME280;2080;51.038;7.008;2023-02-21T16:03:28;76163.03;;;-142.53;100.00
4133;BME280;2080;51.038;7.008;2023-02-21T16:08:49;76161.09;;;-142.53;98.89
4133;BME280;2080;51.038;7.008;2023-02-21T16:11:18;76201.88;;;-142.53;100.00
4133;BME280;2080;51.038;7.008;2023-02-21T16:13:44;76219.34;;;-142.53;100.00
4133;BME280;2080;51.038;7.008;2023-02-21T16:16:10;76265.97;;;-142.53;100.00
4133;BME280;2080;51.038;7.008;2023-02-21T16:18:36;76262.06;;;-142.53;100.00
4133;BME280;2080;51.038;7.008;2023-02-21T16:21:06;76297.03;;;-142.53;100.00
4133;BME280;2080;51.038;7.008;2023-02-21T16:23:37;76295.09;;;-142.53;100.00
4133;BME280;2080;51.038;7.008;2023-02-21T16:28:34;76339.75;;;-142.53;100.00
4133;BME280;2080;51.038;7.008;2023-02-21T16:31:02;76359.19;;;-142.53;100.00
4133;BME280;2080;51.038;7.008;2023-02-21T16:33:29;76407.75;;;-142.53;100.00